sensor_id;sensor_type;location;lat;lon;timestamp;P1;durP1;ratioP1;P2;durP2;ratioP2
38224;SDS011;24025;48.138;11.428;2022-09-29T00:01:37;1.52;;;0.52;;
38224;SDS011;24025;48.138;11.428;2022-09-29T00:04:08;0.52;;;0.30;;
38224;SDS011;24025;48.138;11.428;2022-09-29T00:06:39;0.52;;;0.40;;
38224;SDS011;24025;48.138;11.428;2022-09-29T00:09:10;1.00;;;0.30;;
38224;SDS011;24025;48.138;11.428;2022-09-29T00:11:40;0.63;;;0.30;;
38224;SDS011;24025;48.138;11.428;2022-09-29T00:14:11;2.03;;;0.40;;
38224;SDS011;24025;48.138;11.428;2022-09-29T00:16:41;1.35;;;0.50;;
38224;SDS011;24025;48.138;11.428;2022-09-29T00:19:11;0.28;;;0.20;;
38224;SDS011;24025;48.138;11.428;2022-09-29T00:21:42;6.03;;;0.30;;
38224;SDS011;24025;48.138;11.428;2022-09-29T00:24:12;0.80;;;0.20;;
38224;SDS011;24025;48.138;11.428;2022-09-29T00:26:42;0.82;;;0.40;;
38224;SDS011;24025;48.138;11.428;2022-09-29T00:29:15;0.93;;;0.20;;
38224;SDS011;24025;48.138;11.428;2022-09-29T00:31:46;0.90;;;0.43;;
38224;SDS011;24025;48.138;11.428;2022-09-29T00:34:16;0.65;;;0.30;;
38224;SDS011;24025;48.138;11.428;2022-09-29T00:36:46;4.13;;;0.50;;
38224;SDS011;24025;48.138;11.428;2022-09-29T00:39:17;0.93;;;0.60;;
38224;SDS011;24025;48.138;11.428;2022-09-29T00:41:47;0.77;;;0.45;;
38224;SDS011;24025;48.138;11.428;2022-09-29T00:46:48;0.65;;;0.28;;
38224;SDS011;24025;48.138;11.428;2022-09-29T00:52:11;0.82;;;0.30;;
38224;SDS011;24025;48.138;11.428;2022-09-29T00:57:41;0.47;;;0.20;;
38224;SDS011;24025;48.138;11.428;2022-09-29T01:00:34;3.13;;;0.30;;
38224;SDS011;24025;48.138;11.428;2022-09-29T01:03:09;0.45;;;0.30;;
38224;SDS011;24025;48.138;11.428;2022-09-29T01:05:45;1.50;;;0.30;;
38224;SDS011;24025;48.138;11.428;2022-09-29T01:08:22;1.20;;;0.55;;
38224;SDS011;24025;48.138;11.428;2022-09-29T01:10:56;1.90;;;0.40;;
38224;SDS011;24025;48.138;11.428;2022-09-29T01:13:30;0.20;;;0.20;;
38224;SDS011;24025;48.138;11.428;2022-09-29T01:16:02;0.20;;;0.20;;
38224;SDS011;24025;48.138;11.428;2022-09-29T01:18:33;0.50;;;0.30;;
38224;SDS011;24025;48.138;11.428;2022-09-29T01:24:04;0.50;;;0.30;;
38224;SDS011;24025;48.138;11.428;2022-09-29T01:26:57;2.40;;;0.20;;
38224;SDS011;24025;48.138;11.428;2022-09-29T01:29:50;0.30;;;0.20;;
38224;SDS011;24025;48.138;11.428;2022-09-29T01:35:51;4.57;;;0.28;;
38224;SDS011;24025;48.138;11.428;2022-09-29T01:46:28;1.10;;;0.30;;
38224;SDS011;24025;48.138;11.428;2022-09-29T01:49:02;0.55;;;0.22;;
38224;SDS011;24025;48.138;11.428;2022-09-29T01:51:51;0.32;;;0.30;;
38224;SDS011;24025;48.138;11.428;2022-09-29T01:59:48;0.77;;;0.20;;
38224;SDS011;24025;48.138;11.428;2022-09-29T02:02:32;4.50;;;0.30;;
38224;SDS011;24025;48.138;11.428;2022-09-29T02:05:08;1.30;;;0.30;;
38224;SDS011;24025;48.138;11.428;2022-09-29T02:07:45;1.00;;;0.43;;
38224;SDS011;24025;48.138;11.428;2022-09-29T02:10:24;0.25;;;0.20;;
38224;SDS011;24025;48.138;11.428;2022-09-29T02:13:00;1.75;;;0.32;;
38224;SDS011;24025;48.138;11.428;2022-09-29T02:15:34;2.05;;;0.40;;
38224;SDS011;24025;48.138;11.428;2022-09-29T02:18:13;0.43;;;0.20;;
38224;SDS011;24025;48.138;11.428;2022-09-29T02:20:50;1.95;;;0.20;;
38224;SDS011;24025;48.138;11.428;2022-09-29T02:23:20;0.43;;;0.30;;
38224;SDS011;24025;48.138;11.428;2022-09-29T02:25:51;2.22;;;0.40;;
38224;SDS011;24025;48.138;11.428;2022-09-29T02:28:24;5.32;;;0.30;;
38224;SDS011;24025;48.138;11.428;2022-09-29T02:30:54;0.60;;;0.35;;
38224;SDS011;24025;48.138;11.428;2022-09-29T02:33:25;0.70;;;0.40;;
38224;SDS011;24025;48.138;11.428;2022-09-29T02:35:58;3.72;;;0.50;;
38224;SDS011;24025;48.138;11.428;2022-09-29T02:44:12;0.50;;;0.28;;
38224;SDS011;24025;48.138;11.428;2022-09-29T02:50:05;0.45;;;0.30;;
38224;SDS011;24025;48.138;11.428;2022-09-29T02:58:19;2.17;;;0.20;;
38224;SDS011;24025;48.138;11.428;2022-09-29T03:00:56;0.35;;;0.20;;
38224;SDS011;24025;48.138;11.428;2022-09-29T03:03:28;5.30;;;0.20;;
38224;SDS011;24025;48.138;11.428;2022-09-29T03:05:58;0.60;;;0.30;;
38224;SDS011;24025;48.138;11.428;2022-09-29T03:08:29;0.40;;;0.30;;
38224;SDS011;24025;48.138;11.428;2022-09-29T03:10:59;0.75;;;0.10;;
38224;SDS011;24025;48.138;11.428;2022-09-29T03:13:30;1.10;;;0.28;;
38224;SDS011;24025;48.138;11.428;2022-09-29T03:16:00;0.55;;;0.30;;
38224;SDS011;24025;48.138;11.428;2022-09-29T03:18:31;0.52;;;0.20;;
38224;SDS011;24025;48.138;11.428;2022-09-29T03:21:01;0.30;;;0.20;;
38224;SDS011;24025;48.138;11.428;2022-09-29T03:23:32;0.32;;;0.30;;
38224;SDS011;24025;48.138;11.428;2022-09-29T03:26:02;2.13;;;0.22;;
38224;SDS011;24025;48.138;11.428;2022-09-29T03:28:32;0.55;;;0.25;;
38224;SDS011;24025;48.138;11.428;2022-09-29T03:31:06;1.00;;;0.30;;
38224;SDS011;24025;48.138;11.428;2022-09-29T03:33:38;2.83;;;0.30;;
38224;SDS011;24025;48.138;11.428;2022-09-29T03:36:09;0.32;;;0.28;;
38224;SDS011;24025;48.138;11.428;2022-09-29T03:38:40;3.00;;;0.38;;
38224;SDS011;24025;48.138;11.428;2022-09-29T03:41:12;0.40;;;0.22;;
38224;SDS011;24025;48.138;11.428;2022-09-29T03:43:44;2.25;;;0.35;;
38224;SDS011;24025;48.138;11.428;2022-09-29T03:46:15;0.13;;;0.10;;
38224;SDS011;24025;48.138;11.428;2022-09-29T03:48:45;1.90;;;0.40;;
38224;SDS011;24025;48.138;11.428;2022-09-29T03:51:16;0.60;;;0.35;;
38224;SDS011;24025;48.138;11.428;2022-09-29T03:53:46;0.40;;;0.35;;
38224;SDS011;24025;48.138;11.428;2022-09-29T03:56:16;1.95;;;0.45;;
38224;SDS011;24025;48.138;11.428;2022-09-29T03:58:47;0.40;;;0.22;;
38224;SDS011;24025;48.138;11.428;2022-09-29T04:01:17;1.58;;;0.38;;
38224;SDS011;24025;48.138;11.428;2022-09-29T04:03:48;0.63;;;0.35;;
38224;SDS011;24025;48.138;11.428;2022-09-29T04:06:18;0.45;;;0.20;;
38224;SDS011;24025;48.138;11.428;2022-09-29T04:08:49;0.20;;;0.20;;
38224;SDS011;24025;48.138;11.428;2022-09-29T04:11:19;1.10;;;0.28;;
38224;SDS011;24025;48.138;11.428;2022-09-29T04:13:50;0.28;;;0.20;;
38224;SDS011;24025;48.138;11.428;2022-09-29T04:16:20;3.30;;;0.25;;
38224;SDS011;24025;48.138;11.428;2022-09-29T04:18:51;2.53;;;0.20;;
38224;SDS011;24025;48.138;11.428;2022-09-29T04:21:21;0.45;;;0.20;;
38224;SDS011;24025;48.138;11.428;2022-09-29T04:23:51;0.63;;;0.25;;
38224;SDS011;24025;48.138;11.428;2022-09-29T04:26:22;0.50;;;0.20;;
38224;SDS011;24025;48.138;11.428;2022-09-29T04:28:52;0.47;;;0.20;;
38224;SDS011;24025;48.138;11.428;2022-09-29T04:31:24;1.95;;;0.30;;
38224;SDS011;24025;48.138;11.428;2022-09-29T04:33:54;1.85;;;0.32;;
38224;SDS011;24025;48.138;11.428;2022-09-29T04:36:25;0.40;;;0.30;;
38224;SDS011;24025;48.138;11.428;2022-09-29T04:38:56;0.65;;;0.20;;
38224;SDS011;24025;48.138;11.428;2022-09-29T04:41:26;0.70;;;0.30;;
38224;SDS011;24025;48.138;11.428;2022-09-29T04:43:57;0.85;;;0.30;;
38224;SDS011;24025;48.138;11.428;2022-09-29T04:46:27;1.45;;;0.50;;
38224;SDS011;24025;48.138;11.428;2022-09-29T04:48:58;3.33;;;0.50;;
38224;SDS011;24025;48.138;11.428;2022-09-29T04:51:28;0.75;;;0.40;;
38224;SDS011;24025;48.138;11.428;2022-09-29T04:53:59;1.23;;;0.50;;
38224;SDS011;24025;48.138;11.428;2022-09-29T04:56:29;0.80;;;0.40;;
38224;SDS011;24025;48.138;11.428;2022-09-29T04:59:00;0.70;;;0.50;;
38224;SDS011;24025;48.138;11.428;2022-09-29T05:01:31;0.85;;;0.40;;
38224;SDS011;24025;48.138;11.428;2022-09-29T05:04:01;0.75;;;0.40;;
38224;SDS011;24025;48.138;11.428;2022-09-29T05:06:31;1.27;;;0.40;;
38224;SDS011;24025;48.138;11.428;2022-09-29T05:09:02;1.48;;;0.40;;
38224;SDS011;24025;48.138;11.428;2022-09-29T05:11:33;2.65;;;0.47;;
38224;SDS011;24025;48.138;11.428;2022-09-29T05:14:04;1.70;;;0.40;;
38224;SDS011;24025;48.138;11.428;2022-09-29T05:16:34;0.93;;;0.50;;
38224;SDS011;24025;48.138;11.428;2022-09-29T05:19:05;1.55;;;0.47;;
38224;SDS011;24025;48.138;11.428;2022-09-29T05:21:35;0.30;;;0.30;;
38224;SDS011;24025;48.138;11.428;2022-09-29T05:24:05;2.05;;;0.20;;
38224;SDS011;24025;48.138;11.428;2022-09-29T05:26:36;3.50;;;0.30;;
38224;SDS011;24025;48.138;11.428;2022-09-29T05:29:06;3.45;;;0.30;;
38224;SDS011;24025;48.138;11.428;2022-09-29T05:31:37;1.10;;;0.40;;
38224;SDS011;24025;48.138;11.428;2022-09-29T05:34:07;2.55;;;0.35;;
38224;SDS011;24025;48.138;11.428;2022-09-29T05:36:38;1.75;;;0.70;;
38224;SDS011;24025;48.138;11.428;2022-09-29T05:39:09;3.45;;;0.73;;
38224;SDS011;24025;48.138;11.428;2022-09-29T05:41:39;1.73;;;1.00;;
38224;SDS011;24025;48.138;11.428;2022-09-29T05:44:10;4.40;;;1.60;;
38224;SDS011;24025;48.138;11.428;2022-09-29T05:46:40;2.58;;;0.63;;
38224;SDS011;24025;48.138;11.428;2022-09-29T05:49:11;2.17;;;0.50;;
38224;SDS011;24025;48.138;11.428;2022-09-29T05:51:41;1.02;;;0.40;;
38224;SDS011;24025;48.138;11.428;2022-09-29T05:54:12;3.83;;;0.80;;
38224;SDS011;24025;48.138;11.428;2022-09-29T05:56:42;2.15;;;1.15;;
38224;SDS011;24025;48.138;11.428;2022-09-29T05:59:12;0.60;;;0.45;;
38224;SDS011;24025;48.138;11.428;2022-09-29T06:01:43;3.70;;;0.47;;
38224;SDS011;24025;48.138;11.428;2022-09-29T06:04:13;0.80;;;0.52;;
38224;SDS011;24025;48.138;11.428;2022-09-29T06:06:44;4.13;;;0.88;;
38224;SDS011;24025;48.138;11.428;2022-09-29T06:09:16;1.27;;;0.90;;
38224;SDS011;24025;48.138;11.428;2022-09-29T06:11:47;1.45;;;1.20;;
38224;SDS011;24025;48.138;11.428;2022-09-29T06:14:17;2.78;;;1.50;;
38224;SDS011;24025;48.138;11.428;2022-09-29T06:16:48;6.15;;;4.03;;
38224;SDS011;24025;48.138;11.428;2022-09-29T06:19:20;3.38;;;1.83;;
38224;SDS011;24025;48.138;11.428;2022-09-29T06:21:50;3.65;;;2.50;;
38224;SDS011;24025;48.138;11.428;2022-09-29T06:24:20;3.25;;;1.65;;
38224;SDS011;24025;48.138;11.428;2022-09-29T06:26:51;5.43;;;1.83;;
38224;SDS011;24025;48.138;11.428;2022-09-29T06:29:21;3.95;;;1.88;;
38224;SDS011;24025;48.138;11.428;2022-09-29T06:31:52;2.97;;;1.50;;
38224;SDS011;24025;48.138;11.428;2022-09-29T06:34:23;1.73;;;1.30;;
38224;SDS011;24025;48.138;11.428;2022-09-29T06:36:53;1.55;;;1.10;;
38224;SDS011;24025;48.138;11.428;2022-09-29T06:39:43;1.55;;;1.10;;
38224;SDS011;24025;48.138;11.428;2022-09-29T06:42:13;5.10;;;1.40;;
38224;SDS011;24025;48.138;11.428;2022-09-29T06:44:45;3.17;;;1.00;;
38224;SDS011;24025;48.138;11.428;2022-09-29T06:47:15;2.28;;;1.77;;
38224;SDS011;24025;48.138;11.428;2022-09-29T06:49:45;2.50;;;1.75;;
38224;SDS011;24025;48.138;11.428;2022-09-29T06:52:16;5.40;;;3.25;;
38224;SDS011;24025;48.138;11.428;2022-09-29T06:54:46;5.00;;;2.13;;
38224;SDS011;24025;48.138;11.428;2022-09-29T06:57:17;12.30;;;5.88;;
38224;SDS011;24025;48.138;11.428;2022-09-29T06:59:47;13.10;;;5.53;;
38224;SDS011;24025;48.138;11.428;2022-09-29T07:02:18;2.80;;;2.10;;
38224;SDS011;24025;48.138;11.428;2022-09-29T07:04:48;3.15;;;1.20;;
38224;SDS011;24025;48.138;11.428;2022-09-29T07:07:19;3.55;;;1.10;;
38224;SDS011;24025;48.138;11.428;2022-09-29T07:09:50;1.63;;;1.40;;
38224;SDS011;24025;48.138;11.428;2022-09-29T07:12:20;4.20;;;1.50;;
38224;SDS011;24025;48.138;11.428;2022-09-29T07:14:50;4.22;;;1.52;;
38224;SDS011;24025;48.138;11.428;2022-09-29T07:17:21;2.35;;;1.30;;
38224;SDS011;24025;48.138;11.428;2022-09-29T07:19:52;1.83;;;1.60;;
38224;SDS011;24025;48.138;11.428;2022-09-29T07:22:25;3.40;;;1.58;;
38224;SDS011;24025;48.138;11.428;2022-09-29T07:24:56;1.25;;;1.15;;
38224;SDS011;24025;48.138;11.428;2022-09-29T07:27:26;1.70;;;1.42;;
38224;SDS011;24025;48.138;11.428;2022-09-29T07:29:57;2.42;;;1.02;;
38224;SDS011;24025;48.138;11.428;2022-09-29T07:32:29;3.55;;;1.20;;
38224;SDS011;24025;48.138;11.428;2022-09-29T07:35:01;2.45;;;1.77;;
38224;SDS011;24025;48.138;11.428;2022-09-29T07:37:31;1.50;;;1.10;;
38224;SDS011;24025;48.138;11.428;2022-09-29T07:40:02;3.58;;;1.00;;
38224;SDS011;24025;48.138;11.428;2022-09-29T07:42:32;1.80;;;0.80;;
38224;SDS011;24025;48.138;11.428;2022-09-29T07:45:03;1.90;;;0.90;;
38224;SDS011;24025;48.138;11.428;2022-09-29T07:47:33;1.63;;;0.93;;
38224;SDS011;24025;48.138;11.428;2022-09-29T07:50:04;2.55;;;0.80;;
38224;SDS011;24025;48.138;11.428;2022-09-29T07:52:35;4.45;;;0.82;;
38224;SDS011;24025;48.138;11.428;2022-09-29T07:55:05;1.60;;;0.82;;
38224;SDS011;24025;48.138;11.428;2022-09-29T07:57:36;2.00;;;1.00;;
38224;SDS011;24025;48.138;11.428;2022-09-29T08:00:06;6.38;;;1.00;;
38224;SDS011;24025;48.138;11.428;2022-09-29T08:02:37;4.93;;;0.88;;
38224;SDS011;24025;48.138;11.428;2022-09-29T08:05:08;1.15;;;0.60;;
38224;SDS011;24025;48.138;11.428;2022-09-29T08:07:38;1.88;;;0.60;;
38224;SDS011;24025;48.138;11.428;2022-09-29T08:10:09;0.60;;;0.52;;
38224;SDS011;24025;48.138;11.428;2022-09-29T08:12:39;1.40;;;0.40;;
38224;SDS011;24025;48.138;11.428;2022-09-29T08:15:10;2.42;;;0.60;;
38224;SDS011;24025;48.138;11.428;2022-09-29T08:17:40;1.30;;;0.60;;
38224;SDS011;24025;48.138;11.428;2022-09-29T08:20:11;1.45;;;0.77;;
38224;SDS011;24025;48.138;11.428;2022-09-29T08:22:41;3.67;;;0.65;;
38224;SDS011;24025;48.138;11.428;2022-09-29T08:25:11;2.03;;;0.60;;
38224;SDS011;24025;48.138;11.428;2022-09-29T08:27:42;0.82;;;0.70;;
38224;SDS011;24025;48.138;11.428;2022-09-29T08:30:12;1.17;;;0.88;;
38224;SDS011;24025;48.138;11.428;2022-09-29T08:32:43;0.98;;;0.80;;
38224;SDS011;24025;48.138;11.428;2022-09-29T08:35:19;2.15;;;0.50;;
38224;SDS011;24025;48.138;11.428;2022-09-29T08:37:50;3.03;;;0.80;;
38224;SDS011;24025;48.138;11.428;2022-09-29T08:40:27;1.60;;;0.75;;
38224;SDS011;24025;48.138;11.428;2022-09-29T08:45:39;1.05;;;0.88;;
38224;SDS011;24025;48.138;11.428;2022-09-29T08:48:14;1.17;;;0.70;;
38224;SDS011;24025;48.138;11.428;2022-09-29T08:53:55;2.95;;;0.95;;
38224;SDS011;24025;48.138;11.428;2022-09-29T08:56:29;1.05;;;0.70;;
38224;SDS011;24025;48.138;11.428;2022-09-29T08:59:00;0.52;;;0.50;;
38224;SDS011;24025;48.138;11.428;2022-09-29T09:01:55;0.60;;;0.40;;
38224;SDS011;24025;48.138;11.428;2022-09-29T09:04:45;1.60;;;0.63;;
38224;SDS011;24025;48.138;11.428;2022-09-29T09:07:34;1.20;;;0.63;;
38224;SDS011;24025;48.138;11.428;2022-09-29T09:13:18;1.35;;;0.30;;
38224;SDS011;24025;48.138;11.428;2022-09-29T09:22:03;0.82;;;0.47;;
38224;SDS011;24025;48.138;11.428;2022-09-29T09:24:55;1.40;;;0.70;;
38224;SDS011;24025;48.138;11.428;2022-09-29T09:27:35;0.70;;;0.50;;
38224;SDS011;24025;48.138;11.428;2022-09-29T09:30:13;0.40;;;0.40;;
38224;SDS011;24025;48.138;11.428;2022-09-29T09:32:47;0.90;;;0.57;;
38224;SDS011;24025;48.138;11.428;2022-09-29T09:35:27;1.52;;;0.57;;
38224;SDS011;24025;48.138;11.428;2022-09-29T09:38:07;1.95;;;0.52;;
38224;SDS011;24025;48.138;11.428;2022-09-29T09:40:53;1.38;;;0.60;;
38224;SDS011;24025;48.138;11.428;2022-09-29T09:46:19;2.38;;;0.55;;
38224;SDS011;24025;48.138;11.428;2022-09-29T09:49:10;1.42;;;0.77;;
38224;SDS011;24025;48.138;11.428;2022-09-29T09:54:39;0.98;;;0.57;;
38224;SDS011;24025;48.138;11.428;2022-09-29T10:00:15;4.60;;;0.47;;
38224;SDS011;24025;48.138;11.428;2022-09-29T10:02:55;1.30;;;0.50;;
38224;SDS011;24025;48.138;11.428;2022-09-29T10:05:43;1.25;;;0.60;;
38224;SDS011;24025;48.138;11.428;2022-09-29T10:11:17;2.17;;;0.73;;
38224;SDS011;24025;48.138;11.428;2022-09-29T10:16:44;2.05;;;1.10;;
38224;SDS011;24025;48.138;11.428;2022-09-29T10:19:21;0.73;;;0.60;;
38224;SDS011;24025;48.138;11.428;2022-09-29T10:21:53;1.92;;;0.47;;
38224;SDS011;24025;48.138;11.428;2022-09-29T10:24:26;0.98;;;0.68;;
38224;SDS011;24025;48.138;11.428;2022-09-29T10:26:59;0.40;;;0.30;;
38224;SDS011;24025;48.138;11.428;2022-09-29T10:32:08;1.00;;;0.28;;
38224;SDS011;24025;48.138;11.428;2022-09-29T10:34:43;0.70;;;0.20;;
38224;SDS011;24025;48.138;11.428;2022-09-29T10:42:47;0.68;;;0.47;;
38224;SDS011;24025;48.138;11.428;2022-09-29T10:53:02;2.13;;;0.80;;
38224;SDS011;24025;48.138;11.428;2022-09-29T10:55:35;1.23;;;1.05;;
38224;SDS011;24025;48.138;11.428;2022-09-29T10:58:24;1.95;;;0.30;;
38224;SDS011;24025;48.138;11.428;2022-09-29T11:01:01;0.80;;;0.40;;
38224;SDS011;24025;48.138;11.428;2022-09-29T11:06:25;1.13;;;0.22;;
38224;SDS011;24025;48.138;11.428;2022-09-29T11:08:59;4.70;;;0.85;;
38224;SDS011;24025;48.138;11.428;2022-09-29T11:12:10;1.65;;;0.60;;
38224;SDS011;24025;48.138;11.428;2022-09-29T11:17:19;1.15;;;0.63;;
38224;SDS011;24025;48.138;11.428;2022-09-29T11:19:54;0.98;;;0.50;;
38224;SDS011;24025;48.138;11.428;2022-09-29T11:25:43;2.03;;;1.15;;
38224;SDS011;24025;48.138;11.428;2022-09-29T11:36:45;1.80;;;0.52;;
38224;SDS011;24025;48.138;11.428;2022-09-29T11:45:10;0.77;;;0.52;;
38224;SDS011;24025;48.138;11.428;2022-09-29T11:50:53;2.45;;;0.57;;
38224;SDS011;24025;48.138;11.428;2022-09-29T11:56:16;1.52;;;0.60;;
38224;SDS011;24025;48.138;11.428;2022-09-29T12:04:32;0.70;;;0.43;;
38224;SDS011;24025;48.138;11.428;2022-09-29T12:13:27;1.65;;;0.80;;
38224;SDS011;24025;48.138;11.428;2022-09-29T12:16:11;3.95;;;0.65;;
38224;SDS011;24025;48.138;11.428;2022-09-29T12:18:46;3.60;;;1.08;;
38224;SDS011;24025;48.138;11.428;2022-09-29T12:21:26;1.30;;;0.95;;
38224;SDS011;24025;48.138;11.428;2022-09-29T12:24:02;1.40;;;0.52;;
38224;SDS011;24025;48.138;11.428;2022-09-29T12:26:35;4.57;;;0.47;;
38224;SDS011;24025;48.138;11.428;2022-09-29T12:31:57;1.48;;;0.70;;
38224;SDS011;24025;48.138;11.428;2022-09-29T12:34:39;0.88;;;0.50;;
38224;SDS011;24025;48.138;11.428;2022-09-29T12:37:20;2.58;;;0.75;;
38224;SDS011;24025;48.138;11.428;2022-09-29T12:48:28;3.75;;;0.55;;
38224;SDS011;24025;48.138;11.428;2022-09-29T12:57:13;2.08;;;0.60;;
38224;SDS011;24025;48.138;11.428;2022-09-29T13:08:16;1.13;;;0.50;;
38224;SDS011;24025;48.138;11.428;2022-09-29T13:24:54;2.13;;;1.00;;
38224;SDS011;24025;48.138;11.428;2022-09-29T13:27:36;4.03;;;0.80;;
38224;SDS011;24025;48.138;11.428;2022-09-29T13:32:47;3.10;;;1.10;;
38224;SDS011;24025;48.138;11.428;2022-09-29T13:35:35;0.85;;;0.50;;
38224;SDS011;24025;48.138;11.428;2022-09-29T13:38:16;1.63;;;0.90;;
38224;SDS011;24025;48.138;11.428;2022-09-29T13:54:31;2.60;;;0.80;;
38224;SDS011;24025;48.138;11.428;2022-09-29T14:05:44;1.92;;;0.80;;
38224;SDS011;24025;48.138;11.428;2022-09-29T14:08:19;1.23;;;0.65;;
38224;SDS011;24025;48.138;11.428;2022-09-29T14:11:01;4.07;;;0.80;;
38224;SDS011;24025;48.138;11.428;2022-09-29T14:19:08;0.55;;;0.55;;
38224;SDS011;24025;48.138;11.428;2022-09-29T14:29:52;2.47;;;1.55;;
38224;SDS011;24025;48.138;11.428;2022-09-29T14:35:34;3.10;;;1.13;;
38224;SDS011;24025;48.138;11.428;2022-09-29T14:38:11;1.58;;;1.00;;
38224;SDS011;24025;48.138;11.428;2022-09-29T14:49:17;4.07;;;1.40;;
38224;SDS011;24025;48.138;11.428;2022-09-29T14:58:06;2.42;;;2.13;;
38224;SDS011;24025;48.138;11.428;2022-09-29T15:03:53;4.70;;;1.70;;
38224;SDS011;24025;48.138;11.428;2022-09-29T15:06:27;2.63;;;1.58;;
38224;SDS011;24025;48.138;11.428;2022-09-29T15:09:02;2.35;;;1.63;;
38224;SDS011;24025;48.138;11.428;2022-09-29T15:11:48;4.10;;;1.73;;
38224;SDS011;24025;48.138;11.428;2022-09-29T15:14:30;6.10;;;2.50;;
38224;SDS011;24025;48.138;11.428;2022-09-29T15:17:05;4.13;;;3.00;;
38224;SDS011;24025;48.138;11.428;2022-09-29T15:19:44;3.30;;;2.80;;
38224;SDS011;24025;48.138;11.428;2022-09-29T15:25:25;7.07;;;4.57;;
38224;SDS011;24025;48.138;11.428;2022-09-29T15:28:09;6.65;;;4.68;;
38224;SDS011;24025;48.138;11.428;2022-09-29T15:30:45;3.65;;;2.85;;
38224;SDS011;24025;48.138;11.428;2022-09-29T15:35:51;1.77;;;1.40;;
38224;SDS011;24025;48.138;11.428;2022-09-29T15:38:34;2.00;;;1.33;;
38224;SDS011;24025;48.138;11.428;2022-09-29T15:43:52;2.58;;;1.70;;
38224;SDS011;24025;48.138;11.428;2022-09-29T15:46:47;7.18;;;4.05;;
38224;SDS011;24025;48.138;11.428;2022-09-29T15:49:24;5.57;;;3.22;;
38224;SDS011;24025;48.138;11.428;2022-09-29T15:52:02;2.47;;;1.40;;
38224;SDS011;24025;48.138;11.428;2022-09-29T15:54:42;4.80;;;2.50;;
38224;SDS011;24025;48.138;11.428;2022-09-29T15:57:31;3.53;;;2.28;;
38224;SDS011;24025;48.138;11.428;2022-09-29T16:02:57;4.35;;;2.58;;
38224;SDS011;24025;48.138;11.428;2022-09-29T16:05:36;5.60;;;3.22;;
38224;SDS011;24025;48.138;11.428;2022-09-29T16:08:16;4.75;;;2.45;;
38224;SDS011;24025;48.138;11.428;2022-09-29T16:10:51;8.70;;;4.88;;
38224;SDS011;24025;48.138;11.428;2022-09-29T16:13:25;4.22;;;2.40;;
38224;SDS011;24025;48.138;11.428;2022-09-29T16:16:01;4.45;;;2.53;;
38224;SDS011;24025;48.138;11.428;2022-09-29T16:18:37;3.30;;;2.00;;
38224;SDS011;24025;48.138;11.428;2022-09-29T16:21:14;3.15;;;1.90;;
38224;SDS011;24025;48.138;11.428;2022-09-29T16:23:48;3.88;;;2.47;;
38224;SDS011;24025;48.138;11.428;2022-09-29T16:26:32;5.43;;;2.70;;
38224;SDS011;24025;48.138;11.428;2022-09-29T16:31:40;3.85;;;2.17;;
38224;SDS011;24025;48.138;11.428;2022-09-29T16:36:52;7.80;;;3.38;;
38224;SDS011;24025;48.138;11.428;2022-09-29T16:39:27;6.65;;;3.30;;
38224;SDS011;24025;48.138;11.428;2022-09-29T16:42:02;4.97;;;2.70;;
38224;SDS011;24025;48.138;11.428;2022-09-29T16:44:43;4.38;;;2.45;;
38224;SDS011;24025;48.138;11.428;2022-09-29T16:47:20;6.35;;;4.22;;
38224;SDS011;24025;48.138;11.428;2022-09-29T16:49:57;6.75;;;4.32;;
38224;SDS011;24025;48.138;11.428;2022-09-29T16:52:44;7.63;;;3.90;;
38224;SDS011;24025;48.138;11.428;2022-09-29T17:00:42;4.38;;;2.03;;
38224;SDS011;24025;48.138;11.428;2022-09-29T17:03:13;5.75;;;2.42;;
38224;SDS011;24025;48.138;11.428;2022-09-29T17:05:44;5.80;;;1.63;;
38224;SDS011;24025;48.138;11.428;2022-09-29T17:08:20;5.88;;;2.28;;
38224;SDS011;24025;48.138;11.428;2022-09-29T17:10:53;5.07;;;2.15;;
38224;SDS011;24025;48.138;11.428;2022-09-29T17:13:34;5.70;;;2.30;;
38224;SDS011;24025;48.138;11.428;2022-09-29T17:16:05;2.72;;;2.25;;
38224;SDS011;24025;48.138;11.428;2022-09-29T17:18:39;3.72;;;2.80;;
38224;SDS011;24025;48.138;11.428;2022-09-29T17:21:09;4.97;;;3.10;;
38224;SDS011;24025;48.138;11.428;2022-09-29T17:23:40;5.72;;;3.50;;
38224;SDS011;24025;48.138;11.428;2022-09-29T17:26:17;5.35;;;3.33;;
38224;SDS011;24025;48.138;11.428;2022-09-29T17:29:10;4.65;;;2.55;;
38224;SDS011;24025;48.138;11.428;2022-09-29T17:31:41;4.18;;;2.70;;
38224;SDS011;24025;48.138;11.428;2022-09-29T17:34:11;4.18;;;3.05;;
38224;SDS011;24025;48.138;11.428;2022-09-29T17:36:42;4.38;;;2.97;;
38224;SDS011;24025;48.138;11.428;2022-09-29T17:39:13;4.13;;;3.33;;
38224;SDS011;24025;48.138;11.428;2022-09-29T17:41:43;12.65;;;7.75;;
38224;SDS011;24025;48.138;11.428;2022-09-29T17:44:14;17.92;;;10.38;;
38224;SDS011;24025;48.138;11.428;2022-09-29T17:46:44;19.58;;;12.25;;
38224;SDS011;24025;48.138;11.428;2022-09-29T17:49:16;13.63;;;9.03;;
38224;SDS011;24025;48.138;11.428;2022-09-29T17:51:47;10.13;;;7.57;;
38224;SDS011;24025;48.138;11.428;2022-09-29T17:54:17;10.82;;;6.75;;
38224;SDS011;24025;48.138;11.428;2022-09-29T17:56:48;7.03;;;6.15;;
38224;SDS011;24025;48.138;11.428;2022-09-29T17:59:18;8.05;;;5.15;;
38224;SDS011;24025;48.138;11.428;2022-09-29T18:01:48;9.13;;;5.85;;
38224;SDS011;24025;48.138;11.428;2022-09-29T18:04:19;11.88;;;7.05;;
38224;SDS011;24025;48.138;11.428;2022-09-29T18:06:49;8.88;;;5.85;;
38224;SDS011;24025;48.138;11.428;2022-09-29T18:09:20;8.40;;;5.88;;
38224;SDS011;24025;48.138;11.428;2022-09-29T18:11:50;10.52;;;5.68;;
38224;SDS011;24025;48.138;11.428;2022-09-29T18:14:21;10.73;;;6.35;;
38224;SDS011;24025;48.138;11.428;2022-09-29T18:16:51;7.97;;;6.30;;
38224;SDS011;24025;48.138;11.428;2022-09-29T18:19:24;10.43;;;5.50;;
38224;SDS011;24025;48.138;11.428;2022-09-29T18:21:54;6.57;;;4.65;;
38224;SDS011;24025;48.138;11.428;2022-09-29T18:24:26;7.13;;;4.93;;
38224;SDS011;24025;48.138;11.428;2022-09-29T18:26:56;9.25;;;6.32;;
38224;SDS011;24025;48.138;11.428;2022-09-29T18:29:28;13.60;;;8.18;;
38224;SDS011;24025;48.138;11.428;2022-09-29T18:32:01;9.43;;;6.65;;
38224;SDS011;24025;48.138;11.428;2022-09-29T18:34:31;11.23;;;6.60;;
38224;SDS011;24025;48.138;11.428;2022-09-29T18:37:02;11.40;;;7.35;;
38224;SDS011;24025;48.138;11.428;2022-09-29T18:39:33;8.30;;;6.00;;
38224;SDS011;24025;48.138;11.428;2022-09-29T18:42:04;12.88;;;8.48;;
38224;SDS011;24025;48.138;11.428;2022-09-29T18:44:34;10.20;;;6.80;;
38224;SDS011;24025;48.138;11.428;2022-09-29T18:47:05;15.10;;;8.85;;
38224;SDS011;24025;48.138;11.428;2022-09-29T18:49:39;30.95;;;11.27;;
38224;SDS011;24025;48.138;11.428;2022-09-29T18:52:09;44.03;;;16.63;;
38224;SDS011;24025;48.138;11.428;2022-09-29T18:54:40;48.35;;;17.80;;
38224;SDS011;24025;48.138;11.428;2022-09-29T18:57:10;19.17;;;9.73;;
38224;SDS011;24025;48.138;11.428;2022-09-29T19:02:12;12.35;;;7.57;;
38224;SDS011;24025;48.138;11.428;2022-09-29T19:04:43;10.43;;;7.18;;
38224;SDS011;24025;48.138;11.428;2022-09-29T19:07:13;26.02;;;13.80;;
38224;SDS011;24025;48.138;11.428;2022-09-29T19:09:44;25.38;;;13.20;;
38224;SDS011;24025;48.138;11.428;2022-09-29T19:12:15;11.48;;;8.77;;
38224;SDS011;24025;48.138;11.428;2022-09-29T19:14:45;11.10;;;7.00;;
38224;SDS011;24025;48.138;11.428;2022-09-29T19:17:16;24.88;;;10.95;;
38224;SDS011;24025;48.138;11.428;2022-09-29T19:19:47;13.80;;;7.30;;
38224;SDS011;24025;48.138;11.428;2022-09-29T19:22:18;11.27;;;7.13;;
38224;SDS011;24025;48.138;11.428;2022-09-29T19:24:49;7.72;;;6.28;;